createdAt,value
2018-09-25T00:03:26.116Z,68.54
2018-09-25T00:08:34.692Z,68.64
2018-09-25T00:13:43.294Z,68.17
2018-09-25T00:18:51.813Z,68.35
2018-09-25T00:24:00.503Z,68.46
2018-09-25T00:29:09.104Z,68.12
2018-09-25T00:34:17.618Z,68.39
2018-09-25T00:39:26.179Z,68.09
2018-09-25T00:44:34.979Z,68.56
2018-09-25T00:49:43.553Z,68.61
2018-09-25T00:54:52.051Z,68.76
2018-09-25T01:00:00.872Z,68.99
2018-09-25T01:05:09.366Z,69.32
2018-09-25T01:10:17.896Z,69.17
2018-09-25T01:15:26.475Z,68.76
2018-09-25T01:20:35.167Z,68.49
2018-09-25T01:25:43.789Z,68.61
2018-09-25T01:30:52.327Z,68.25
2018-09-25T01:36:00.854Z,68.21
2018-09-25T01:41:09.511Z,69.00
2018-09-25T01:46:18.158Z,68.96
2018-09-25T01:51:26.743Z,69.88
2018-09-25T01:56:35.486Z,69.71
2018-09-25T02:01:44.157Z,69.75
2018-09-25T02:06:52.999Z,69.52
2018-09-25T02:12:01.591Z,69.39
2018-09-25T02:17:10.323Z,68.92
2018-09-25T02:22:19.121Z,68.69
2018-09-25T02:27:27.843Z,68.81
2018-09-25T02:32:36.600Z,69.19
2018-09-25T02:37:45.283Z,69.04
2018-09-25T02:42:54.042Z,69.01
2018-09-25T02:48:02.795Z,69.67
2018-09-25T02:53:11.404Z,70.17
2018-09-25T02:58:20.133Z,70.59
2018-09-25T03:03:28.777Z,70.48
2018-09-25T03:08:37.440Z,70.64
2018-09-25T03:13:45.959Z,70.77
2018-09-25T03:18:54.538Z,70.51
2018-09-25T03:24:03.282Z,70.59
2018-09-25T03:29:11.886Z,70.83
2018-09-25T03:34:20.615Z,70.70
2018-09-25T03:39:29.226Z,70.55
2018-09-25T03:44:37.889Z,70.55
2018-09-25T03:49:46.473Z,70.75
2018-09-25T03:54:55.081Z,70.99
2018-09-25T04:00:03.733Z,70.88
2018-09-25T04:05:12.415Z,71.32
2018-09-25T04:10:21.023Z,71.60
2018-09-25T04:15:29.622Z,72.13
2018-09-25T04:20:38.448Z,71.93
2018-09-25T04:25:47.177Z,71.74
2018-09-25T04:30:55.879Z,71.94
2018-09-25T04:36:04.582Z,71.90
2018-09-25T04:41:13.407Z,71.57
2018-09-25T04:46:22.172Z,71.66
2018-09-25T04:51:30.747Z,71.96
2018-09-25T04:56:39.459Z,72.16
2018-09-25T05:01:48.219Z,72.27
2018-09-25T05:06:56.835Z,71.59
2018-09-25T05:12:05.529Z,71.57
2018-09-25T05:17:14.134Z,71.54
2018-09-25T05:22:22.697Z,71.93
2018-09-25T05:27:31.408Z,71.87
2018-09-25T05:32:46.983Z,72.31
2018-09-25T05:37:55.554Z,72.22
2018-09-25T05:43:04.204Z,72.40
2018-09-25T05:48:12.949Z,72.53
2018-09-25T05:53:21.672Z,72.62
2018-09-25T05:58:30.200Z,71.62
2018-09-25T06:03:38.938Z,71.84
2018-09-25T06:08:47.563Z,71.39
2018-09-25T06:13:56.323Z,71.15
2018-09-25T06:19:04.831Z,70.83
2018-09-25T06:24:13.460Z,70.49
2018-09-25T06:29:22.018Z,70.40
2018-09-25T06:34:30.717Z,70.37
2018-09-25T06:39:39.411Z,69.69
2018-09-25T06:44:48.224Z,69.74
2018-09-25T06:49:56.835Z,69.33
2018-09-25T06:55:05.552Z,69.29
2018-09-25T07:00:14.127Z,69.19
2018-09-25T07:05:22.691Z,68.95
2018-09-25T07:10:31.429Z,68.27
2018-09-25T07:15:40.061Z,68.21
2018-09-25T07:20:48.844Z,68.44
2018-09-25T07:25:57.763Z,68.24
2018-09-25T07:31:06.620Z,68.42
2018-09-25T07:36:15.425Z,68.12
2018-09-25T07:41:24.139Z,66.96
2018-09-25T07:46:32.899Z,66.57
2018-09-25T07:51:41.616Z,65.48
2018-09-25T07:56:50.393Z,65.08
2018-09-25T08:01:59.154Z,64.43
2018-09-25T08:07:07.938Z,64.97
2018-09-25T08:12:16.455Z,64.27
2018-09-25T08:17:25.082Z,64.08
2018-09-25T08:22:33.691Z,63.10
2018-09-25T08:27:42.386Z,62.24
2018-09-25T08:32:51.203Z,62.94
2018-09-25T08:37:59.835Z,62.94
2018-09-25T08:43:08.449Z,62.80
2018-09-25T08:48:17.134Z,61.05
2018-09-25T08:53:25.845Z,60.86
2018-09-25T08:58:34.396Z,60.03
2018-09-25T09:03:43.090Z,58.16
2018-09-25T09:08:51.883Z,57.57
2018-09-25T09:14:00.491Z,56.92
2018-09-25T09:19:09.099Z,57.11
2018-09-25T09:24:17.807Z,57.48
2018-09-25T09:29:26.466Z,58.28
2018-09-25T09:34:35.149Z,55.49
2018-09-25T09:39:43.798Z,53.33
2018-09-25T09:44:52.515Z,52.71
2018-09-25T09:50:01.270Z,53.64
2018-09-25T09:55:10.022Z,53.39
2018-09-25T10:00:18.461Z,52.08
2018-09-25T10:11:05.481Z,48.88
2018-09-25T10:16:14.218Z,48.97
2018-09-25T10:21:22.814Z,47.72
2018-09-25T10:26:31.681Z,48.55
2018-09-25T10:31:40.447Z,46.95
2018-09-25T10:36:49.187Z,47.42
2018-09-25T10:41:57.711Z,45.60
2018-09-25T10:47:06.291Z,45.60
2018-09-25T10:52:15.154Z,43.08
2018-09-25T10:57:23.831Z,44.06
2018-09-25T11:02:32.633Z,44.10
2018-09-25T11:07:41.283Z,44.76
2018-09-25T11:12:50.023Z,45.34
2018-09-25T11:23:36.150Z,23.29
2018-09-25T11:28:44.883Z,20.33
2018-09-25T11:33:53.526Z,19.81
2018-09-25T11:39:02.250Z,16.30
2018-09-25T12:34:52.995Z,21.40
2018-09-25T12:40:01.766Z,17.87
2018-09-25T12:45:11.058Z,15.19
2018-09-25T12:50:19.748Z,22.42
2018-09-25T12:55:28.356Z,23.91
2018-09-25T13:00:37.096Z,16.53
2018-09-25T13:05:45.646Z,15.80
2018-09-25T13:10:54.204Z,19.07
2018-09-25T13:21:33.313Z,17.07
2018-09-25T13:26:41.879Z,16.10
2018-09-25T13:32:02.977Z,15.24
2018-09-25T13:37:11.639Z,20.98
2018-09-25T13:42:20.386Z,26.99
2018-09-25T13:47:29.114Z,30.35
2018-09-25T13:52:37.776Z,34.07
2018-09-25T13:57:46.388Z,30.01
2018-09-25T14:02:55.155Z,28.39
2018-09-25T14:08:03.716Z,29.34
2018-09-25T14:13:12.506Z,31.33
2018-09-25T14:18:21.219Z,33.62
2018-09-25T14:23:29.849Z,33.42
2018-09-25T14:28:38.637Z,35.54
2018-09-25T14:33:47.239Z,36.53
2018-09-25T14:38:56.007Z,36.48
2018-09-25T14:44:04.638Z,37.36
2018-09-25T14:49:13.434Z,38.46
2018-09-25T14:54:22.155Z,37.01
2018-09-25T14:59:30.808Z,39.75
2018-09-25T15:10:16.996Z,38.68
2018-09-25T15:15:25.710Z,37.81
2018-09-25T15:20:34.411Z,35.63
2018-09-25T15:25:43.115Z,35.15
2018-09-25T15:30:51.880Z,35.38
2018-09-25T15:36:00.617Z,36.11
2018-09-25T15:41:09.279Z,35.06
2018-09-25T15:46:17.923Z,35.36
2018-09-25T15:51:26.569Z,36.10
2018-09-25T15:56:35.208Z,36.19
2018-09-25T16:01:43.903Z,35.94
2018-09-25T16:06:52.577Z,36.82
2018-09-25T16:12:01.173Z,37.00
2018-09-25T16:17:09.776Z,36.71
2018-09-25T16:22:18.369Z,37.62
2018-09-25T16:27:27.123Z,37.82
2018-09-25T16:32:35.790Z,38.36
2018-09-25T16:37:44.564Z,38.67
2018-09-25T16:42:53.089Z,40.13
2018-09-25T16:48:01.920Z,40.08
2018-09-25T16:53:10.824Z,41.13
2018-09-25T16:58:19.615Z,42.78
2018-09-25T17:03:29.119Z,45.03
2018-09-25T17:08:38.349Z,45.60
2018-09-25T17:13:47.175Z,46.19
2018-09-25T17:18:56.040Z,47.95
2018-09-25T17:24:04.622Z,48.89
2018-09-25T17:29:13.472Z,49.79
2018-09-25T17:34:22.348Z,51.00
2018-09-25T17:39:31.596Z,51.95
2018-09-25T17:44:40.184Z,51.96
2018-09-25T17:49:48.945Z,52.09
2018-09-25T17:54:57.735Z,52.31
2018-09-25T18:00:06.575Z,53.00
2018-09-25T18:05:15.270Z,53.42
2018-09-25T18:10:23.727Z,53.75
2018-09-25T18:15:32.424Z,54.29
2018-09-25T18:20:41.261Z,54.96
2018-09-25T18:25:49.997Z,55.41
2018-09-25T18:30:58.457Z,55.67
2018-09-25T18:36:07.141Z,55.71
2018-09-25T18:41:15.816Z,55.86
2018-09-25T18:46:24.435Z,56.00
2018-09-25T18:51:33.001Z,56.32
2018-09-25T18:56:41.661Z,56.66
2018-09-25T19:01:50.210Z,56.84
2018-09-25T19:06:58.929Z,57.15
2018-09-25T19:12:07.687Z,57.41
2018-09-25T19:17:16.443Z,57.32
2018-09-25T19:22:25.173Z,57.18
2018-09-25T19:27:33.857Z,56.99
2018-09-25T19:32:42.593Z,57.37
2018-09-25T19:37:51.178Z,57.33
2018-09-25T19:43:00.027Z,57.38
2018-09-25T19:48:08.863Z,57.65
2018-09-25T19:53:17.627Z,57.74
2018-09-25T19:58:26.396Z,57.77
2018-09-25T20:03:34.942Z,58.06
2018-09-25T20:08:43.693Z,58.27
2018-09-25T20:13:52.230Z,58.18
2018-09-25T20:19:00.934Z,58.36
2018-09-25T20:24:09.544Z,58.50
2018-09-25T20:29:18.220Z,58.29
2018-09-25T20:34:26.950Z,58.29
2018-09-25T20:39:35.588Z,58.70
2018-09-25T20:44:44.351Z,59.01
2018-09-25T20:49:52.976Z,58.89
2018-09-25T20:55:01.647Z,59.41
2018-09-25T21:00:10.397Z,59.29
2018-09-25T21:05:19.133Z,59.33
2018-09-25T21:10:27.908Z,59.56
2018-09-25T21:15:36.689Z,59.61
2018-09-25T21:20:45.408Z,60.06
2018-09-25T21:25:54.164Z,60.17
2018-09-25T21:31:02.714Z,60.06
2018-09-25T21:36:11.304Z,60.55
2018-09-25T21:41:19.813Z,60.78
2018-09-25T21:46:28.488Z,60.81
2018-09-25T21:51:37.326Z,60.65
2018-09-25T21:56:45.928Z,60.75
2018-09-25T22:01:54.523Z,61.48
2018-09-25T22:07:03.273Z,61.05
2018-09-25T22:12:12.063Z,61.09
2018-09-25T22:17:20.863Z,60.99
2018-09-25T22:22:29.453Z,61.19
2018-09-25T22:27:38.242Z,61.52
2018-09-25T22:32:47.078Z,61.54
2018-09-25T22:37:55.807Z,60.77
2018-09-25T22:43:04.606Z,61.41
2018-09-25T22:48:13.307Z,61.59
2018-09-25T22:53:22.091Z,61.33
2018-09-25T22:58:30.698Z,61.37
2018-09-25T23:03:39.290Z,61.23
2018-09-25T23:08:47.822Z,60.88
2018-09-25T23:13:56.248Z,60.86
2018-09-25T23:19:04.918Z,60.87
2018-09-25T23:24:13.488Z,60.54
2018-09-25T23:29:22.190Z,60.66
2018-09-25T23:34:30.948Z,60.75
2018-09-25T23:39:39.523Z,60.91
2018-09-25T23:44:49.560Z,61.30
2018-09-25T23:50:04.355Z,60.90
2018-09-25T23:55:12.052Z,61.00
